sensor_id;sensor_type;location;lat;lon;timestamp;pressure;altitude;pressure_sealevel;temperature;humidity
60479;BME280;46321;48.398;11.754;2023-08-31T00:02:14;96008.94;;;13.44;94.37
60479;BME280;46321;48.398;11.754;2023-08-31T00:04:39;96014.06;;;13.46;94.09
60479;BME280;46321;48.398;11.754;2023-08-31T00:07:05;96015.50;;;13.42;94.26
60479;BME280;46321;48.398;11.754;2023-08-31T00:09:30;96026.75;;;13.44;94.46
60479;BME280;46321;48.398;11.754;2023-08-31T00:11:56;96016.28;;;13.35;94.73
60479;BME280;46321;48.398;11.754;2023-08-31T00:14:24;96023.25;;;13.30;95.22
60479;BME280;46321;48.398;11.754;2023-08-31T00:16:50;96018.78;;;13.23;95.72
60479;BME280;46321;48.398;11.754;2023-08-31T00:19:15;96031.22;;;13.16;95.62
60479;BME280;46321;48.398;11.754;2023-08-31T00:21:41;96025.09;;;13.15;95.55
60479;BME280;46321;48.398;11.754;2023-08-31T00:24:06;96019.75;;;13.09;96.08
60479;BME280;46321;48.398;11.754;2023-08-31T00:26:33;96024.28;;;13.01;96.83
60479;BME280;46321;48.398;11.754;2023-08-31T00:28:58;96027.09;;;13.00;96.66
60479;BME280;46321;48.398;11.754;2023-08-31T00:31:23;96027.09;;;12.93;96.75
60479;BME280;46321;48.398;11.754;2023-08-31T00:33:49;96032.00;;;12.89;96.35
60479;BME280;46321;48.398;11.754;2023-08-31T00:36:14;96033.00;;;12.81;96.83
60479;BME280;46321;48.398;11.754;2023-08-31T00:38:40;96042.22;;;12.79;96.96
60479;BME280;46321;48.398;11.754;2023-08-31T00:41:05;96048.50;;;12.71;97.56
60479;BME280;46321;48.398;11.754;2023-08-31T00:43:31;96038.91;;;12.70;96.92
60479;BME280;46321;48.398;11.754;2023-08-31T00:45:56;96049.09;;;12.66;97.26
60479;BME280;46321;48.398;11.754;2023-08-31T00:48:23;96050.75;;;12.67;97.28
60479;BME280;46321;48.398;11.754;2023-08-31T00:50:49;96055.66;;;12.70;96.75
60479;BME280;46321;48.398;11.754;2023-08-31T00:53:16;96055.84;;;12.69;97.11
60479;BME280;46321;48.398;11.754;2023-08-31T00:55:44;96057.50;;;12.70;97.43
60479;BME280;46321;48.398;11.754;2023-08-31T00:58:09;96054.41;;;12.66;97.25
60479;BME280;46321;48.398;11.754;2023-08-31T01:00:55;96063.81;;;12.69;96.65
60479;BME280;46321;48.398;11.754;2023-08-31T01:03:34;96055.81;;;12.62;97.08
60479;BME280;46321;48.398;11.754;2023-08-31T01:06:12;96050.09;;;12.58;97.41
60479;BME280;46321;48.398;11.754;2023-08-31T01:08:50;96060.53;;;12.60;97.76
60479;BME280;46321;48.398;11.754;2023-08-31T01:11:27;96067.06;;;12.64;97.71
60479;BME280;46321;48.398;11.754;2023-08-31T01:14:00;96059.13;;;12.71;97.79
60479;BME280;46321;48.398;11.754;2023-08-31T01:16:28;96061.41;;;12.74;98.13
60479;BME280;46321;48.398;11.754;2023-08-31T01:18:56;96065.50;;;12.77;97.64
60479;BME280;46321;48.398;11.754;2023-08-31T01:21:27;96067.94;;;12.78;97.19
60479;BME280;46321;48.398;11.754;2023-08-31T01:23:56;96063.00;;;12.75;97.57
60479;BME280;46321;48.398;11.754;2023-08-31T01:26:24;96069.13;;;12.69;97.58
60479;BME280;46321;48.398;11.754;2023-08-31T01:28:50;96060.94;;;12.70;97.49
60479;BME280;46321;48.398;11.754;2023-08-31T01:31:16;96055.66;;;12.70;97.09
60479;BME280;46321;48.398;11.754;2023-08-31T01:33:42;96046.06;;;12.69;96.46
60479;BME280;46321;48.398;11.754;2023-08-31T01:36:14;96050.13;;;12.65;96.54
60479;BME280;46321;48.398;11.754;2023-08-31T01:38:42;96056.84;;;12.54;96.24
60479;BME280;46321;48.398;11.754;2023-08-31T01:41:13;96063.16;;;12.53;96.36
60479;BME280;46321;48.398;11.754;2023-08-31T01:43:40;96069.28;;;12.54;96.30
60479;BME280;46321;48.398;11.754;2023-08-31T01:46:07;96074.00;;;12.58;96.14
60479;BME280;46321;48.398;11.754;2023-08-31T01:48:40;96069.31;;;12.61;96.58
60479;BME280;46321;48.398;11.754;2023-08-31T01:51:09;96069.09;;;12.62;96.59
60479;BME280;46321;48.398;11.754;2023-08-31T01:53:35;96068.91;;;12.64;96.58
60479;BME280;46321;48.398;11.754;2023-08-31T01:56:00;96069.94;;;12.63;96.31
60479;BME280;46321;48.398;11.754;2023-08-31T01:58:25;96068.75;;;12.72;96.12
60479;BME280;46321;48.398;11.754;2023-08-31T02:00:51;96066.28;;;12.77;96.02
60479;BME280;46321;48.398;11.754;2023-08-31T02:03:16;96075.28;;;12.76;96.07
60479;BME280;46321;48.398;11.754;2023-08-31T02:05:41;96082.84;;;12.79;95.79
60479;BME280;46321;48.398;11.754;2023-08-31T02:08:07;96088.34;;;12.78;95.88
60479;BME280;46321;48.398;11.754;2023-08-31T02:10:32;96093.69;;;12.85;95.72
60479;BME280;46321;48.398;11.754;2023-08-31T02:12:57;96085.34;;;12.88;95.63
60479;BME280;46321;48.398;11.754;2023-08-31T02:15:22;96101.09;;;12.96;95.56
60479;BME280;46321;48.398;11.754;2023-08-31T02:17:48;96098.44;;;12.96;95.01
60479;BME280;46321;48.398;11.754;2023-08-31T02:20:13;96091.28;;;12.97;96.30
60479;BME280;46321;48.398;11.754;2023-08-31T02:22:39;96096.38;;;12.98;95.56
60479;BME280;46321;48.398;11.754;2023-08-31T02:25:05;96101.69;;;12.98;95.63
60479;BME280;46321;48.398;11.754;2023-08-31T02:27:30;96108.66;;;12.99;96.04
60479;BME280;46321;48.398;11.754;2023-08-31T02:29:56;96108.66;;;12.99;95.90
60479;BME280;46321;48.398;11.754;2023-08-31T02:32:21;96111.53;;;13.04;96.14
60479;BME280;46321;48.398;11.754;2023-08-31T02:34:46;96124.22;;;13.09;95.77
60479;BME280;46321;48.398;11.754;2023-08-31T02:37:12;96116.44;;;13.01;95.42
60479;BME280;46321;48.398;11.754;2023-08-31T02:39:37;96117.28;;;13.08;95.41
60479;BME280;46321;48.398;11.754;2023-08-31T02:42:02;96109.69;;;13.05;95.68
60479;BME280;46321;48.398;11.754;2023-08-31T02:44:28;96107.44;;;13.09;95.51
60479;BME280;46321;48.398;11.754;2023-08-31T02:46:53;96121.31;;;13.04;96.13
60479;BME280;46321;48.398;11.754;2023-08-31T02:49:18;96126.47;;;13.05;95.55
60479;BME280;46321;48.398;11.754;2023-08-31T02:51:43;96119.50;;;13.04;95.18
60479;BME280;46321;48.398;11.754;2023-08-31T02:54:09;96120.34;;;13.12;95.31
60479;BME280;46321;48.398;11.754;2023-08-31T02:56:34;96120.09;;;13.07;95.26
60479;BME280;46321;48.398;11.754;2023-08-31T02:58:59;96128.09;;;13.13;94.37
60479;BME280;46321;48.398;11.754;2023-08-31T03:01:25;96123.59;;;13.07;94.46
60479;BME280;46321;48.398;11.754;2023-08-31T03:03:50;96115.00;;;13.05;94.34
60479;BME280;46321;48.398;11.754;2023-08-31T03:06:15;96098.25;;;13.04;94.04
60479;BME280;46321;48.398;11.754;2023-08-31T03:08:41;96106.81;;;13.00;94.28
60479;BME280;46321;48.398;11.754;2023-08-31T03:11:06;96098.81;;;12.93;94.88
60479;BME280;46321;48.398;11.754;2023-08-31T03:13:32;96099.44;;;12.95;95.34
60479;BME280;46321;48.398;11.754;2023-08-31T03:15:59;96103.09;;;12.80;95.92
60479;BME280;46321;48.398;11.754;2023-08-31T03:18:25;96112.06;;;12.86;95.90
60479;BME280;46321;48.398;11.754;2023-08-31T03:20:50;96125.59;;;12.91;95.87
60479;BME280;46321;48.398;11.754;2023-08-31T03:23:16;96111.66;;;12.82;95.63
60479;BME280;46321;48.398;11.754;2023-08-31T03:25:41;96114.56;;;12.88;95.25
60479;BME280;46321;48.398;11.754;2023-08-31T03:28:07;96112.91;;;12.87;95.52
60479;BME280;46321;48.398;11.754;2023-08-31T03:30:32;96116.59;;;12.86;95.79
60479;BME280;46321;48.398;11.754;2023-08-31T03:32:57;96112.69;;;12.88;95.69
60479;BME280;46321;48.398;11.754;2023-08-31T03:35:22;96107.19;;;12.83;96.11
60479;BME280;46321;48.398;11.754;2023-08-31T03:37:52;96102.88;;;12.82;96.18
60479;BME280;46321;48.398;11.754;2023-08-31T03:40:17;96107.19;;;12.83;96.36
60479;BME280;46321;48.398;11.754;2023-08-31T03:42:42;96121.06;;;12.85;96.06
60479;BME280;46321;48.398;11.754;2023-08-31T03:45:08;96129.66;;;12.87;95.31
60479;BME280;46321;48.398;11.754;2023-08-31T03:47:33;96142.31;;;12.85;95.67
60479;BME280;46321;48.398;11.754;2023-08-31T03:49:58;96139.25;;;12.88;95.36
60479;BME280;46321;48.398;11.754;2023-08-31T03:52:24;96149.09;;;12.88;95.30
60479;BME280;46321;48.398;11.754;2023-08-31T03:54:50;96156.25;;;12.94;94.80
60479;BME280;46321;48.398;11.754;2023-08-31T03:57:16;96164.19;;;12.87;95.31
60479;BME280;46321;48.398;11.754;2023-08-31T03:59:41;96173.00;;;12.88;94.81
60479;BME280;46321;48.398;11.754;2023-08-31T04:02:06;96169.88;;;12.84;95.26
60479;BME280;46321;48.398;11.754;2023-08-31T04:04:31;96172.97;;;12.81;95.77
60479;BME280;46321;48.398;11.754;2023-08-31T04:06:57;96177.84;;;12.84;95.67
60479;BME280;46321;48.398;11.754;2023-08-31T04:09:22;96172.53;;;12.84;95.99
60479;BME280;46321;48.398;11.754;2023-08-31T04:11:48;96170.47;;;12.79;96.13
60479;BME280;46321;48.398;11.754;2023-08-31T04:14:13;96179.28;;;12.80;96.24
60479;BME280;46321;48.398;11.754;2023-08-31T04:16:39;96176.66;;;12.87;95.26
60479;BME280;46321;48.398;11.754;2023-08-31T04:19:04;96173.00;;;12.88;94.99
60479;BME280;46321;48.398;11.754;2023-08-31T04:21:29;96180.72;;;12.82;95.46
60479;BME280;46321;48.398;11.754;2023-08-31T04:23:54;96190.97;;;12.86;95.03
60479;BME280;46321;48.398;11.754;2023-08-31T04:26:20;96194.34;;;12.73;95.21
60479;BME280;46321;48.398;11.754;2023-08-31T04:28:45;96195.34;;;12.65;95.56
60479;BME280;46321;48.398;11.754;2023-08-31T04:31:11;96194.75;;;12.69;95.34
60479;BME280;46321;48.398;11.754;2023-08-31T04:33:38;96201.66;;;12.64;95.97
60479;BME280;46321;48.398;11.754;2023-08-31T04:36:04;96212.28;;;12.64;95.97
60479;BME280;46321;48.398;11.754;2023-08-31T04:38:39;96210.66;;;12.63;95.41
60479;BME280;46321;48.398;11.754;2023-08-31T04:41:04;96210.84;;;12.61;95.78
60479;BME280;46321;48.398;11.754;2023-08-31T04:43:29;96212.06;;;12.58;96.04
60479;BME280;46321;48.398;11.754;2023-08-31T04:45:55;96218.00;;;12.61;95.58
60479;BME280;46321;48.398;11.754;2023-08-31T04:48:20;96219.84;;;12.67;95.21
60479;BME280;46321;48.398;11.754;2023-08-31T04:50:46;96220.28;;;12.70;94.68
60479;BME280;46321;48.398;11.754;2023-08-31T04:53:11;96224.00;;;12.76;94.39
60479;BME280;46321;48.398;11.754;2023-08-31T04:55:37;96222.75;;;12.72;94.25
60479;BME280;46321;48.398;11.754;2023-08-31T04:58:05;96233.28;;;12.58;94.83
60479;BME280;46321;48.398;11.754;2023-08-31T05:00:30;96227.56;;;12.62;94.99
60479;BME280;46321;48.398;11.754;2023-08-31T05:02:56;96233.28;;;12.58;95.17
60479;BME280;46321;48.398;11.754;2023-08-31T05:05:22;96231.47;;;12.66;95.12
60479;BME280;46321;48.398;11.754;2023-08-31T05:07:47;96226.38;;;12.64;94.83
60479;BME280;46321;48.398;11.754;2023-08-31T05:10:12;96243.50;;;12.62;95.11
60479;BME280;46321;48.398;11.754;2023-08-31T05:12:38;96237.66;;;12.73;94.96
60479;BME280;46321;48.398;11.754;2023-08-31T05:15:04;96248.06;;;12.75;94.67
60479;BME280;46321;48.398;11.754;2023-08-31T05:17:29;96250.16;;;12.79;94.76
60479;BME280;46321;48.398;11.754;2023-08-31T05:19:55;96251.38;;;12.77;95.24
60479;BME280;46321;48.398;11.754;2023-08-31T05:22:20;96250.41;;;12.85;94.74
60479;BME280;46321;48.398;11.754;2023-08-31T05:24:46;96249.47;;;12.99;93.99
60479;BME280;46321;48.398;11.754;2023-08-31T05:27:11;96256.66;;;13.05;93.04
60479;BME280;46321;48.398;11.754;2023-08-31T05:29:37;96258.06;;;13.01;93.38
60479;BME280;46321;48.398;11.754;2023-08-31T05:32:02;96273.38;;;12.99;93.23
60479;BME280;46321;48.398;11.754;2023-08-31T05:34:27;96273.34;;;12.92;93.91
60479;BME280;46321;48.398;11.754;2023-08-31T05:37:14;96271.53;;;13.00;94.13
60479;BME280;46321;48.398;11.754;2023-08-31T05:39:40;96276.31;;;13.18;93.59
60479;BME280;46321;48.398;11.754;2023-08-31T05:42:05;96281.47;;;13.26;93.86
60479;BME280;46321;48.398;11.754;2023-08-31T05:44:30;96292.56;;;13.37;93.64
60479;BME280;46321;48.398;11.754;2023-08-31T05:46:55;96294.03;;;13.53;92.56
60479;BME280;46321;48.398;11.754;2023-08-31T05:49:21;96302.50;;;13.57;92.33
60479;BME280;46321;48.398;11.754;2023-08-31T05:51:46;96298.63;;;13.59;91.32
60479;BME280;46321;48.398;11.754;2023-08-31T05:54:11;96298.03;;;13.64;91.45
60479;BME280;46321;48.398;11.754;2023-08-31T05:56:38;96293.94;;;13.68;91.83
60479;BME280;46321;48.398;11.754;2023-08-31T05:59:05;96289.22;;;13.70;92.23
60479;BME280;46321;48.398;11.754;2023-08-31T06:01:31;96278.78;;;13.76;91.75
60479;BME280;46321;48.398;11.754;2023-08-31T06:03:56;96278.63;;;13.84;89.71
60479;BME280;46321;48.398;11.754;2023-08-31T06:06:21;96284.16;;;13.96;89.07
60479;BME280;46321;48.398;11.754;2023-08-31T06:08:46;96291.13;;;13.97;87.85
60479;BME280;46321;48.398;11.754;2023-08-31T06:11:13;96286.66;;;13.98;87.47
60479;BME280;46321;48.398;11.754;2023-08-31T06:13:38;96290.31;;;14.03;87.84
60479;BME280;46321;48.398;11.754;2023-08-31T06:16:04;96292.16;;;14.03;86.90
60479;BME280;46321;48.398;11.754;2023-08-31T06:18:29;96293.59;;;13.99;86.89
60479;BME280;46321;48.398;11.754;2023-08-31T06:20:54;96298.50;;;13.95;86.97
60479;BME280;46321;48.398;11.754;2023-08-31T06:23:19;96291.75;;;13.99;86.15
60479;BME280;46321;48.398;11.754;2023-08-31T06:25:45;96300.94;;;13.96;86.63
60479;BME280;46321;48.398;11.754;2023-08-31T06:28:11;96294.19;;;14.01;87.22
60479;BME280;46321;48.398;11.754;2023-08-31T06:30:37;96303.63;;;14.10;85.91
60479;BME280;46321;48.398;11.754;2023-08-31T06:33:03;96297.94;;;14.27;84.92
60479;BME280;46321;48.398;11.754;2023-08-31T06:35:28;96300.19;;;14.30;83.90
60479;BME280;46321;48.398;11.754;2023-08-31T06:37:54;96312.25;;;14.19;83.96
60479;BME280;46321;48.398;11.754;2023-08-31T06:40:21;96312.47;;;14.24;84.26
60479;BME280;46321;48.398;11.754;2023-08-31T06:42:46;96314.53;;;14.29;83.88
60479;BME280;46321;48.398;11.754;2023-08-31T06:45:11;96313.69;;;14.22;84.09
60479;BME280;46321;48.398;11.754;2023-08-31T06:47:37;96322.28;;;14.24;83.60
60479;BME280;46321;48.398;11.754;2023-08-31T06:50:02;96321.25;;;14.25;83.46
60479;BME280;46321;48.398;11.754;2023-08-31T06:52:28;96321.69;;;14.28;83.40
60479;BME280;46321;48.398;11.754;2023-08-31T06:54:54;96328.47;;;14.38;82.54
60479;BME280;46321;48.398;11.754;2023-08-31T06:57:23;96327.63;;;14.37;82.00
60479;BME280;46321;48.398;11.754;2023-08-31T06:59:48;96332.97;;;14.44;80.33
60479;BME280;46321;48.398;11.754;2023-08-31T07:02:14;96331.94;;;14.45;80.93
60479;BME280;46321;48.398;11.754;2023-08-31T07:04:40;96328.47;;;14.45;79.50
60479;BME280;46321;48.398;11.754;2023-08-31T07:07:06;96340.94;;;14.37;79.29
60479;BME280;46321;48.398;11.754;2023-08-31T07:09:31;96343.19;;;14.54;79.03
60479;BME280;46321;48.398;11.754;2023-08-31T07:11:56;96334.19;;;14.75;78.35
60479;BME280;46321;48.398;11.754;2023-08-31T07:14:23;96335.44;;;14.93;78.44
60479;BME280;46321;48.398;11.754;2023-08-31T07:16:48;96343.00;;;15.03;76.42
60479;BME280;46321;48.398;11.754;2023-08-31T07:19:13;96334.59;;;15.06;77.09
60479;BME280;46321;48.398;11.754;2023-08-31T07:21:39;96335.59;;;15.19;77.24
60479;BME280;46321;48.398;11.754;2023-08-31T07:24:04;96334.16;;;15.23;75.69
60479;BME280;46321;48.398;11.754;2023-08-31T07:26:30;96346.66;;;15.22;74.40
60479;BME280;46321;48.398;11.754;2023-08-31T07:28:55;96339.06;;;15.26;75.78
60479;BME280;46321;48.398;11.754;2023-08-31T07:31:20;96353.44;;;15.25;76.08
60479;BME280;46321;48.398;11.754;2023-08-31T07:33:45;96349.13;;;15.24;76.15
60479;BME280;46321;48.398;11.754;2023-08-31T07:36:11;96348.72;;;15.27;76.81
60479;BME280;46321;48.398;11.754;2023-08-31T07:38:36;96361.63;;;15.17;76.50
60479;BME280;46321;48.398;11.754;2023-08-31T07:41:01;96356.09;;;15.25;77.44
60479;BME280;46321;48.398;11.754;2023-08-31T07:43:27;96366.53;;;15.33;76.53
60479;BME280;46321;48.398;11.754;2023-08-31T07:45:53;96368.19;;;15.28;75.64
60479;BME280;46321;48.398;11.754;2023-08-31T07:48:19;96372.09;;;15.25;76.36
60479;BME280;46321;48.398;11.754;2023-08-31T07:50:44;96377.22;;;15.20;75.85
60479;BME280;46321;48.398;11.754;2023-08-31T07:53:11;96383.16;;;15.29;76.48
60479;BME280;46321;48.398;11.754;2023-08-31T07:55:36;96371.41;;;15.50;76.96
60479;BME280;46321;48.398;11.754;2023-08-31T07:58:01;96372.03;;;15.52;75.36
60479;BME280;46321;48.398;11.754;2023-08-31T08:00:27;96371.16;;;15.72;74.70
60479;BME280;46321;48.398;11.754;2023-08-31T08:02:52;96373.06;;;15.97;73.75
60479;BME280;46321;48.398;11.754;2023-08-31T08:05:17;96373.84;;;16.51;72.80
60479;BME280;46321;48.398;11.754;2023-08-31T08:07:43;96384.59;;;16.95;70.03
60479;BME280;46321;48.398;11.754;2023-08-31T08:10:09;96376.66;;;17.07;69.28
60479;BME280;46321;48.398;11.754;2023-08-31T08:12:41;96379.56;;;17.05;67.78
60479;BME280;46321;48.398;11.754;2023-08-31T08:15:11;96374.44;;;17.04;67.57
60479;BME280;46321;48.398;11.754;2023-08-31T08:17:36;96383.84;;;17.13;67.93
60479;BME280;46321;48.398;11.754;2023-08-31T08:20:02;96382.81;;;17.14;67.66
60479;BME280;46321;48.398;11.754;2023-08-31T08:22:28;96377.66;;;16.87;67.82
60479;BME280;46321;48.398;11.754;2023-08-31T08:24:54;96383.13;;;16.99;66.91
60479;BME280;46321;48.398;11.754;2023-08-31T08:27:19;96393.41;;;17.02;68.28
60479;BME280;46321;48.398;11.754;2023-08-31T08:29:46;96393.59;;;16.75;67.48
60479;BME280;46321;48.398;11.754;2023-08-31T08:32:11;96391.69;;;16.57;67.03
60479;BME280;46321;48.398;11.754;2023-08-31T08:34:37;96401.25;;;16.39;69.20
60479;BME280;46321;48.398;11.754;2023-08-31T08:37:02;96399.78;;;16.43;69.91
60479;BME280;46321;48.398;11.754;2023-08-31T08:39:29;96406.38;;;16.41;69.35
60479;BME280;46321;48.398;11.754;2023-08-31T08:41:54;96407.00;;;16.36;68.92
60479;BME280;46321;48.398;11.754;2023-08-31T08:44:24;96415.66;;;16.31;68.08
60479;BME280;46321;48.398;11.754;2023-08-31T08:46:51;96416.28;;;16.27;69.37
60479;BME280;46321;48.398;11.754;2023-08-31T08:49:18;96419.25;;;16.11;68.69
60479;BME280;46321;48.398;11.754;2023-08-31T08:51:44;96419.66;;;16.15;69.51
60479;BME280;46321;48.398;11.754;2023-08-31T08:54:12;96423.38;;;16.07;70.24
60479;BME280;46321;48.398;11.754;2023-08-31T08:56:37;96423.00;;;16.04;70.15
60479;BME280;46321;48.398;11.754;2023-08-31T08:59:02;96426.66;;;16.02;70.01
60479;BME280;46321;48.398;11.754;2023-08-31T09:01:28;96423.19;;;15.95;69.84
60479;BME280;46321;48.398;11.754;2023-08-31T09:03:53;96413.97;;;15.91;69.93
60479;BME280;46321;48.398;11.754;2023-08-31T09:06:19;96428.50;;;15.95;70.81
60479;BME280;46321;48.398;11.754;2023-08-31T09:08:53;96429.56;;;15.94;71.32
60479;BME280;46321;48.398;11.754;2023-08-31T09:11:19;96437.00;;;15.85;71.03
60479;BME280;46321;48.398;11.754;2023-08-31T09:13:48;96435.16;;;15.86;70.89
60479;BME280;46321;48.398;11.754;2023-08-31T09:16:24;96449.31;;;15.79;72.72
60479;BME280;46321;48.398;11.754;2023-08-31T09:18:50;96450.97;;;15.80;72.56
60479;BME280;46321;48.398;11.754;2023-08-31T09:21:15;96441.13;;;15.81;73.24
60479;BME280;46321;48.398;11.754;2023-08-31T09:23:40;96436.19;;;15.78;72.16
60479;BME280;46321;48.398;11.754;2023-08-31T09:26:06;96445.63;;;15.80;71.82
60479;BME280;46321;48.398;11.754;2023-08-31T09:28:31;96440.28;;;15.80;71.26
60479;BME280;46321;48.398;11.754;2023-08-31T09:31:07;96435.97;;;15.79;70.68
60479;BME280;46321;48.398;11.754;2023-08-31T09:33:34;96433.88;;;15.88;72.12
60479;BME280;46321;48.398;11.754;2023-08-31T09:36:00;96427.03;;;16.13;70.35
60479;BME280;46321;48.398;11.754;2023-08-31T09:38:26;96432.81;;;16.49;66.90
60479;BME280;46321;48.398;11.754;2023-08-31T09:40:52;96427.84;;;16.59;65.99
60479;BME280;46321;48.398;11.754;2023-08-31T09:43:21;96438.59;;;16.78;66.20
60479;BME280;46321;48.398;11.754;2023-08-31T09:45:48;96437.53;;;16.86;65.05
60479;BME280;46321;48.398;11.754;2023-08-31T09:48:15;96442.00;;;16.92;63.62
60479;BME280;46321;48.398;11.754;2023-08-31T09:50:43;96436.97;;;17.03;64.56
60479;BME280;46321;48.398;11.754;2023-08-31T09:53:10;96442.34;;;16.70;63.59
60479;BME280;46321;48.398;11.754;2023-08-31T09:55:35;96440.78;;;16.88;63.78
60479;BME280;46321;48.398;11.754;2023-08-31T09:58:06;96438.63;;;17.04;63.91
60479;BME280;46321;48.398;11.754;2023-08-31T10:00:32;96436.59;;;17.50;62.20
60479;BME280;46321;48.398;11.754;2023-08-31T10:03:00;96433.19;;;17.81;59.74
60479;BME280;46321;48.398;11.754;2023-08-31T10:05:26;96431.16;;;19.54;57.32
60479;BME280;46321;48.398;11.754;2023-08-31T10:07:52;96422.72;;;22.51;51.26
60479;BME280;46321;48.398;11.754;2023-08-31T10:10:17;96427.94;;;23.18;46.78
60479;BME280;46321;48.398;11.754;2023-08-31T10:12:45;96421.84;;;25.51;44.42
60479;BME280;46321;48.398;11.754;2023-08-31T10:15:11;96416.44;;;25.41;41.22
60479;BME280;46321;48.398;11.754;2023-08-31T10:17:39;96419.19;;;24.99;42.43
60479;BME280;46321;48.398;11.754;2023-08-31T10:20:05;96408.34;;;25.20;40.10
60479;BME280;46321;48.398;11.754;2023-08-31T10:22:31;96416.38;;;24.36;40.95
60479;BME280;46321;48.398;11.754;2023-08-31T10:27:24;96432.44;;;22.52;42.37
60479;BME280;46321;48.398;11.754;2023-08-31T10:29:49;96433.31;;;21.28;44.76
60479;BME280;46321;48.398;11.754;2023-08-31T10:32:18;96428.69;;;20.77;45.65
60479;BME280;46321;48.398;11.754;2023-08-31T10:34:44;96423.47;;;20.70;46.36
60479;BME280;46321;48.398;11.754;2023-08-31T10:37:29;96421.03;;;20.86;46.68
60479;BME280;46321;48.398;11.754;2023-08-31T10:40:06;96429.59;;;20.82;47.64
60479;BME280;46321;48.398;11.754;2023-08-31T10:42:31;96424.41;;;20.46;47.24
60479;BME280;46321;48.398;11.754;2023-08-31T10:45:05;96430.03;;;20.16;48.35
60479;BME280;46321;48.398;11.754;2023-08-31T10:47:38;96427.97;;;19.94;49.47
60479;BME280;46321;48.398;11.754;2023-08-31T10:50:34;96427.44;;;19.43;50.02
60479;BME280;46321;48.398;11.754;2023-08-31T10:53:09;96422.41;;;19.35;51.55
60479;BME280;46321;48.398;11.754;2023-08-31T10:55:52;96416.81;;;19.37;52.37
60479;BME280;46321;48.398;11.754;2023-08-31T10:58:18;96416.69;;;19.43;52.38
60479;BME280;46321;48.398;11.754;2023-08-31T11:00:50;96423.88;;;18.95;53.98
60479;BME280;46321;48.398;11.754;2023-08-31T11:03:15;96418.44;;;19.50;53.17
60479;BME280;46321;48.398;11.754;2023-08-31T11:05:59;96410.25;;;20.51;52.19
60479;BME280;46321;48.398;11.754;2023-08-31T11:08:25;96407.47;;;20.46;50.46
60479;BME280;46321;48.398;11.754;2023-08-31T11:10:52;96420.03;;;20.75;49.39
60479;BME280;46321;48.398;11.754;2023-08-31T11:13:22;96419.78;;;21.23;50.48
60479;BME280;46321;48.398;11.754;2023-08-31T11:15:48;96427.38;;;21.48;48.52
60479;BME280;46321;48.398;11.754;2023-08-31T11:18:14;96427.13;;;21.67;47.67
60479;BME280;46321;48.398;11.754;2023-08-31T11:20:43;96431.47;;;21.51;47.33
60479;BME280;46321;48.398;11.754;2023-08-31T11:23:08;96430.81;;;22.51;47.38
60479;BME280;46321;48.398;11.754;2023-08-31T11:25:34;96427.84;;;22.52;45.55
60479;BME280;46321;48.398;11.754;2023-08-31T11:28:02;96426.97;;;22.19;46.71
60479;BME280;46321;48.398;11.754;2023-08-31T11:30:30;96413.44;;;21.91;44.50
60479;BME280;46321;48.398;11.754;2023-08-31T11:32:57;96420.66;;;22.08;44.95
60479;BME280;46321;48.398;11.754;2023-08-31T11:35:32;96415.44;;;22.24;46.54
60479;BME280;46321;48.398;11.754;2023-08-31T11:37:58;96417.06;;;22.25;45.17
60479;BME280;46321;48.398;11.754;2023-08-31T11:40:26;96415.00;;;22.10;45.82
60479;BME280;46321;48.398;11.754;2023-08-31T11:42:51;96410.53;;;21.76;45.54
60479;BME280;46321;48.398;11.754;2023-08-31T11:45:17;96420.88;;;21.44;46.33
60479;BME280;46321;48.398;11.754;2023-08-31T11:47:43;96423.41;;;21.51;46.86
60479;BME280;46321;48.398;11.754;2023-08-31T11:50:11;96411.13;;;21.60;46.61
60479;BME280;46321;48.398;11.754;2023-08-31T11:52:38;96418.78;;;21.29;45.78
60479;BME280;46321;48.398;11.754;2023-08-31T11:55:10;96428.00;;;21.16;46.93
60479;BME280;46321;48.398;11.754;2023-08-31T11:57:35;96435.72;;;20.78;47.76
60479;BME280;46321;48.398;11.754;2023-08-31T12:00:02;96428.56;;;20.54;47.21
60479;BME280;46321;48.398;11.754;2023-08-31T12:02:34;96437.03;;;20.46;47.21
60479;BME280;46321;48.398;11.754;2023-08-31T12:05:00;96434.44;;;20.22;46.95
60479;BME280;46321;48.398;11.754;2023-08-31T12:07:25;96432.78;;;20.21;47.11
60479;BME280;46321;48.398;11.754;2023-08-31T12:09:50;96433.28;;;20.18;47.69
60479;BME280;46321;48.398;11.754;2023-08-31T12:12:20;96433.53;;;20.04;48.34
60479;BME280;46321;48.398;11.754;2023-08-31T12:14:45;96437.16;;;20.10;48.67
60479;BME280;46321;48.398;11.754;2023-08-31T12:17:11;96444.84;;;20.18;48.21
60479;BME280;46321;48.398;11.754;2023-08-31T12:19:37;96443.47;;;20.16;47.85
60479;BME280;46321;48.398;11.754;2023-08-31T12:22:06;96442.06;;;20.13;47.32
60479;BME280;46321;48.398;11.754;2023-08-31T12:24:38;96448.16;;;20.38;46.76
60479;BME280;46321;48.398;11.754;2023-08-31T12:27:05;96443.63;;;20.38;50.15
60479;BME280;46321;48.398;11.754;2023-08-31T12:29:31;96445.63;;;20.60;47.07
60479;BME280;46321;48.398;11.754;2023-08-31T12:31:56;96452.88;;;20.77;45.93
60479;BME280;46321;48.398;11.754;2023-08-31T12:34:23;96448.31;;;20.77;46.22
60479;BME280;46321;48.398;11.754;2023-08-31T12:36:48;96451.41;;;20.69;46.78
60479;BME280;46321;48.398;11.754;2023-08-31T12:39:13;96449.69;;;20.63;46.75
60479;BME280;46321;48.398;11.754;2023-08-31T12:41:39;96452.03;;;20.30;49.97
60479;BME280;46321;48.398;11.754;2023-08-31T12:44:08;96455.84;;;19.80;49.75
60479;BME280;46321;48.398;11.754;2023-08-31T12:46:33;96456.09;;;19.67;48.75
60479;BME280;46321;48.398;11.754;2023-08-31T12:49:02;96450.63;;;19.74;48.95
60479;BME280;46321;48.398;11.754;2023-08-31T12:51:29;96445.28;;;19.50;50.46